Česky Dansk Deutsch English Español Suomi Français Magyar Italiano Nederlands norsk Polski Português svenska Türkçe

 

Het Weer

Port Sudan International (Sudan)

05:00, 18 augustus 2016 (GMT)

NWNNE
WE
SWSSE
Home            
Port Sudan International Port Sudan Jeddah Jeddah King Abdul Aziz International Airport Makkah Atbara Taif Agordat Kassala Al Baha Tessenei / Teseney Massawa Asmara Yenbo Bisha Abha Khamis Mushait Axum Madinah Gedaref Gizan Khartoum Wadi Halfa

Om een weerknop op uw website of weblog te plaatsen, copieer onderstaande code en plak die in uw pagina. In het eerste vakje staat HTML-code, in het tweede vakje UBB-code.


Add to Google

Details

Wind speed:1 bf, 3 kn, 1.5 m/s, 3.5 miles/h, 5.6 km/h
Wind direction:E, 080°
Visibility: 8000 m, 8.0 km, 26247 ft, 5.0 miles
Temperature:33°C, 91°F
Gefühlte Temperatur:38°C, 100°F
Dew-point:23°C, 73°F
Atmospheric pressure:1006 hPa, 754.6 mmHg, 29.71 inHg, 0.993 atm
Relative humidity:55.9 %
METAR:HSPN 180500Z 08003KT 8000 33/23 Q1006

Snelkoppelingen

Actuele weersinformatie van de hele wereld. Voeg locaties toe met het plus (+) symbool. Deze snelkoppelingen kunnen worden toegevoegd aan Google.

Lid van de Technetium groep

website free tracking
StatCounter NetStat W3C Validator

14-04-2021 09:37:31
astro.technetium.be money.technetium.be phote.technetium.be tafeltennistafel.technetium.be www.ligfiets.net